createdAt,value
2018-04-11T00:01:08.270Z,29.42
2018-04-11T00:03:34.911Z,28.08
2018-04-11T00:06:01.587Z,30.15
2018-04-11T00:08:28.250Z,29.00
2018-04-11T00:10:55.491Z,30.33
2018-04-11T00:13:22.163Z,28.80
2018-04-11T00:15:48.799Z,28.48
2018-04-11T00:18:16.261Z,30.45
2018-04-11T00:20:43.610Z,30.12
2018-04-11T00:23:10.363Z,29.30
2018-04-11T00:25:36.984Z,30.10
2018-04-11T00:28:07.503Z,32.17
2018-04-11T00:30:34.154Z,28.73
2018-04-11T00:33:00.827Z,30.75
2018-04-11T00:35:27.500Z,29.48
2018-04-11T00:37:54.648Z,27.85
2018-04-11T00:40:21.322Z,27.52
2018-04-11T00:42:48.895Z,29.37
2018-04-11T00:45:15.579Z,28.62
2018-04-11T00:47:42.224Z,30.05
2018-04-11T00:50:09.103Z,30.95
2018-04-11T00:52:35.763Z,28.33
2018-04-11T00:55:02.391Z,30.88
2018-04-11T00:57:29.019Z,31.85
2018-04-11T00:59:55.680Z,29.17
2018-04-11T01:02:22.446Z,28.62
2018-04-11T01:04:49.209Z,30.17
2018-04-11T01:07:15.903Z,28.05
2018-04-11T01:09:42.561Z,31.42
2018-04-11T01:12:09.204Z,30.55
2018-04-11T01:14:35.901Z,29.00
2018-04-11T01:17:11.039Z,30.50
2018-04-11T01:19:38.383Z,28.75
2018-04-11T01:22:06.047Z,30.20
2018-04-11T01:24:41.113Z,32.15
2018-04-11T01:27:08.943Z,28.67
2018-04-11T01:29:35.600Z,33.90
2018-04-11T01:32:02.258Z,31.80
2018-04-11T01:34:28.898Z,32.22
2018-04-11T01:36:55.621Z,32.47
2018-04-11T01:39:22.309Z,33.42
2018-04-11T01:41:53.970Z,39.38
2018-04-11T01:44:20.640Z,41.33
2018-04-11T01:46:47.322Z,44.78
2018-04-11T01:49:14.103Z,46.70
2018-04-11T01:51:41.250Z,42.95
2018-04-11T01:54:09.682Z,49.00
2018-04-11T01:56:36.354Z,45.75
2018-04-11T01:59:03.520Z,47.05
2018-04-11T02:01:30.181Z,42.42
2018-04-11T02:03:56.918Z,40.33
2018-04-11T02:06:23.611Z,42.28
2018-04-11T02:08:50.278Z,38.30
2018-04-11T02:11:16.971Z,39.03
2018-04-11T02:13:44.130Z,42.28
2018-04-11T02:16:10.771Z,43.70
2018-04-11T02:18:37.412Z,40.88
2018-04-11T02:21:04.053Z,44.28
2018-04-11T02:23:34.956Z,43.58
2018-04-11T02:26:02.537Z,41.45
2018-04-11T02:28:29.291Z,39.75
2018-04-11T02:30:55.965Z,51.92
2018-04-11T02:33:22.614Z,41.20
2018-04-11T02:35:49.484Z,42.22
2018-04-11T02:38:17.202Z,48.47
2018-04-11T02:40:45.198Z,46.90
2018-04-11T02:43:12.795Z,48.72
2018-04-11T02:45:39.957Z,48.25
2018-04-11T02:48:06.705Z,45.42
2018-04-11T02:50:34.275Z,52.40
2018-04-11T02:53:01.791Z,43.63
2018-04-11T02:55:33.560Z,46.45
2018-04-11T02:58:00.185Z,47.50
2018-04-11T03:00:26.888Z,45.90
2018-04-11T03:02:54.351Z,44.15
2018-04-11T03:05:21.437Z,47.22
2018-04-11T03:07:53.499Z,54.60
2018-04-11T03:10:20.156Z,44.80
2018-04-11T03:12:48.057Z,45.55
2018-04-11T03:15:14.859Z,45.50
2018-04-11T03:17:41.618Z,43.05
2018-04-11T03:20:08.298Z,46.25
2018-04-11T03:22:34.969Z,45.83
2018-04-11T03:25:01.592Z,46.45
2018-04-11T03:27:32.767Z,48.75
2018-04-11T03:30:00.134Z,44.78
2018-04-11T03:32:27.005Z,41.58
2018-04-11T03:34:54.121Z,46.25
2018-04-11T03:37:20.817Z,48.78
2018-04-11T03:39:47.868Z,43.90
2018-04-11T03:42:14.902Z,44.00
2018-04-11T03:44:45.368Z,50.17
2018-04-11T03:47:15.994Z,47.40
2018-04-11T03:49:42.639Z,49.30
2018-04-11T03:52:09.298Z,47.15
2018-04-11T03:54:36.107Z,42.22
2018-04-11T03:57:02.796Z,47.83
2018-04-11T03:59:33.551Z,44.08
2018-04-11T04:02:00.187Z,46.20
2018-04-11T04:04:26.865Z,48.58
2018-04-11T04:06:53.550Z,42.28
2018-04-11T04:09:25.822Z,42.40
2018-04-11T04:11:52.525Z,44.20
2018-04-11T04:14:25.228Z,44.47
2018-04-11T04:16:58.555Z,45.90
2018-04-11T04:19:32.148Z,44.30
2018-04-11T04:21:59.419Z,42.38
2018-04-11T04:24:29.817Z,46.05
2018-04-11T04:26:56.563Z,42.95
2018-04-11T04:29:23.217Z,42.62
2018-04-11T04:31:51.302Z,43.72
2018-04-11T04:34:17.942Z,40.97
2018-04-11T04:36:44.664Z,45.00
2018-04-11T04:39:11.370Z,43.50
2018-04-11T04:41:38.061Z,42.90
2018-04-11T04:44:04.790Z,44.03
2018-04-11T04:46:31.523Z,40.85
2018-04-11T04:48:58.207Z,45.38
2018-04-11T04:51:24.865Z,46.05
2018-04-11T04:53:51.626Z,44.67
2018-04-11T04:56:18.281Z,43.30
2018-04-11T04:58:45.079Z,46.83
2018-04-11T05:01:16.603Z,45.80
2018-04-11T05:03:43.671Z,40.97
2018-04-11T05:06:10.347Z,46.75
2018-04-11T05:08:37.112Z,51.88
2018-04-11T05:11:03.796Z,42.85
2018-04-11T05:13:30.805Z,39.40
2018-04-11T05:15:57.605Z,46.00
2018-04-11T05:18:24.296Z,41.17
2018-04-11T05:20:51.001Z,40.65
2018-04-11T05:23:17.671Z,41.55
2018-04-11T05:25:44.967Z,43.20
2018-04-11T05:28:12.410Z,44.33
2018-04-11T05:30:39.167Z,41.67
2018-04-11T05:33:06.241Z,41.67
2018-04-11T05:35:33.134Z,49.05
2018-04-11T05:37:59.931Z,42.53
2018-04-11T05:40:27.874Z,39.28
2018-04-11T05:42:54.517Z,44.20
2018-04-11T05:45:21.170Z,45.85
2018-04-11T05:47:48.677Z,41.95
2018-04-11T05:50:15.899Z,43.90
2018-04-11T05:52:43.177Z,42.80
2018-04-11T05:55:09.810Z,44.80
2018-04-11T05:57:36.521Z,41.08
2018-04-11T06:00:03.185Z,40.92
2018-04-11T06:02:29.872Z,38.53
2018-04-11T06:04:56.486Z,42.13
2018-04-11T06:07:23.160Z,38.67
2018-04-11T06:09:49.786Z,41.70
2018-04-11T06:12:16.467Z,41.90
2018-04-11T06:14:43.215Z,38.47
2018-04-11T06:17:10.002Z,41.60
2018-04-11T06:19:36.687Z,37.35
2018-04-11T06:22:03.441Z,44.10
2018-04-11T06:24:30.132Z,36.30
2018-04-11T06:26:57.065Z,36.75
2018-04-11T06:29:23.771Z,37.60
2018-04-11T06:31:50.587Z,40.10
2018-04-11T06:34:17.219Z,36.70
2018-04-11T06:36:43.987Z,36.80
2018-04-11T06:39:10.731Z,40.95
2018-04-11T06:41:37.510Z,36.80
2018-04-11T06:44:04.393Z,38.78
2018-04-11T06:46:31.262Z,39.58
2018-04-11T06:48:58.019Z,41.10
2018-04-11T06:51:24.698Z,38.78
2018-04-11T06:53:51.501Z,37.08
2018-04-11T06:56:18.329Z,32.60
2018-04-11T06:58:45.098Z,35.53
2018-04-11T07:01:11.880Z,36.57
2018-04-11T07:03:38.648Z,34.03
2018-04-11T07:06:05.394Z,32.37
2018-04-11T07:08:32.123Z,35.93
2018-04-11T07:10:58.913Z,37.63
2018-04-11T07:13:25.745Z,35.80
2018-04-11T07:15:52.439Z,39.33
2018-04-11T07:18:19.166Z,39.53
2018-04-11T07:20:45.961Z,36.37
2018-04-11T07:23:12.679Z,33.83
2018-04-11T07:25:39.775Z,39.57
2018-04-11T07:28:06.508Z,36.20
2018-04-11T07:30:33.245Z,34.60
2018-04-11T07:32:59.854Z,36.20
2018-04-11T07:35:26.493Z,35.40
2018-04-11T07:37:53.145Z,33.97
2018-04-11T07:40:24.960Z,34.00
2018-04-11T07:42:51.737Z,33.95
2018-04-11T07:45:18.384Z,36.23
2018-04-11T07:47:45.011Z,32.47
2018-04-11T07:50:11.673Z,33.00
2018-04-11T07:52:38.322Z,33.38
2018-04-11T07:55:04.971Z,35.67
2018-04-11T07:57:31.602Z,32.10
2018-04-11T07:59:58.263Z,31.77
2018-04-11T08:02:24.891Z,31.50
2018-04-11T08:04:51.554Z,32.08
2018-04-11T08:07:18.190Z,31.10
2018-04-11T08:09:44.878Z,31.10
2018-04-11T08:12:11.559Z,35.77
2018-04-11T08:14:38.219Z,30.62
2018-04-11T08:17:04.859Z,31.80
2018-04-11T08:19:31.506Z,34.53
2018-04-11T08:21:58.194Z,32.80
2018-04-11T08:24:24.813Z,31.80
2018-04-11T08:26:51.578Z,32.27
2018-04-11T08:29:18.193Z,29.33
2018-04-11T08:31:45.482Z,31.37
2018-04-11T08:34:12.099Z,30.00
2018-04-11T08:36:38.742Z,32.00
2018-04-11T08:39:06.080Z,31.80
2018-04-11T08:41:32.722Z,32.07
2018-04-11T08:43:59.339Z,32.20
2018-04-11T08:46:25.978Z,31.20
2018-04-11T08:48:52.602Z,30.90
2018-04-11T08:51:19.313Z,31.40
2018-04-11T08:53:46.634Z,32.10
2018-04-11T08:56:13.275Z,29.30
2018-04-11T08:58:39.908Z,30.50
2018-04-11T09:01:06.571Z,31.27
2018-04-11T09:03:33.218Z,29.40
2018-04-11T09:05:59.847Z,31.47
2018-04-11T09:08:26.482Z,30.17
2018-04-11T09:10:53.122Z,29.77
2018-04-11T09:40:59.860Z,29.73
2018-04-11T09:43:26.494Z,35.70
2018-04-11T09:45:53.131Z,27.17
2018-04-11T09:48:19.750Z,25.90
2018-04-11T10:45:57.993Z,25.10
2018-04-11T10:48:24.634Z,27.48
2018-04-11T10:50:51.259Z,27.13
2018-04-11T10:53:17.909Z,25.77
2018-04-11T10:55:44.595Z,27.13
2018-04-11T10:58:11.333Z,28.23
2018-04-11T11:00:37.990Z,35.83
2018-04-11T11:03:04.680Z,28.67
2018-04-11T11:05:31.326Z,28.35
2018-04-11T11:07:57.971Z,28.65
2018-04-11T11:10:24.660Z,31.43
2018-04-11T11:12:51.308Z,40.92
2018-04-11T11:15:17.952Z,28.87
2018-04-11T11:17:44.639Z,29.33
2018-04-11T11:20:11.279Z,31.02
2018-04-11T11:22:38.650Z,28.77
2018-04-11T11:25:05.298Z,38.23
2018-04-11T11:27:31.939Z,28.80
2018-04-11T11:29:58.593Z,29.80
2018-04-11T11:32:25.224Z,32.83
2018-04-11T11:34:52.023Z,28.07
2018-04-11T11:37:18.692Z,29.03
2018-04-11T11:39:45.335Z,29.33
2018-04-11T11:42:11.971Z,29.17
2018-04-11T11:44:38.625Z,27.42
2018-04-11T11:47:05.272Z,30.42
2018-04-11T11:49:31.956Z,30.10
2018-04-11T11:51:58.650Z,30.02
2018-04-11T11:54:26.127Z,28.60
2018-04-11T11:56:53.277Z,26.10
2018-04-11T11:59:19.943Z,28.87
2018-04-11T12:01:46.586Z,30.57
2018-04-11T12:04:13.225Z,29.20
2018-04-11T12:06:39.861Z,29.33
2018-04-11T12:09:06.522Z,30.57
2018-04-11T12:11:33.731Z,31.08
2018-04-11T12:14:00.369Z,28.60
2018-04-11T12:16:27.026Z,29.63
2018-04-11T12:18:53.650Z,28.67
2018-04-11T12:21:20.287Z,27.80
2018-04-11T12:23:46.924Z,62.65
2018-04-11T12:26:13.588Z,30.27
2018-04-11T12:28:40.231Z,29.12
2018-04-11T12:31:06.894Z,30.10
2018-04-11T12:33:33.539Z,27.75
2018-04-11T12:36:00.194Z,30.45
2018-04-11T12:38:26.834Z,29.83
2018-04-11T12:40:53.518Z,28.52
2018-04-11T12:43:20.749Z,29.08
2018-04-11T12:45:47.413Z,28.42
2018-04-11T12:48:14.100Z,28.30
2018-04-11T12:50:40.796Z,30.23
2018-04-11T12:53:07.435Z,31.80
2018-04-11T12:55:34.083Z,29.90
2018-04-11T12:58:00.771Z,29.52
2018-04-11T13:00:28.225Z,30.48
2018-04-11T13:02:54.886Z,27.97
2018-04-11T13:05:21.561Z,30.67
2018-04-11T13:07:48.262Z,28.17
2018-04-11T13:10:14.943Z,29.02
2018-04-11T13:12:41.633Z,31.17
2018-04-11T13:15:08.323Z,28.35
2018-04-11T13:17:34.963Z,27.95
2018-04-11T13:20:01.599Z,34.95
2018-04-11T13:22:28.306Z,35.00
2018-04-11T13:24:55.015Z,32.13
2018-04-11T13:27:21.686Z,28.85
2018-04-11T13:29:48.325Z,30.67
2018-04-11T13:32:14.966Z,29.80
2018-04-11T13:34:41.595Z,75.40
2018-04-11T13:37:08.278Z,30.58
2018-04-11T13:39:34.962Z,28.08
2018-04-11T13:42:01.598Z,26.30
2018-04-11T13:44:28.286Z,25.12
2018-04-11T13:46:54.935Z,26.05
2018-04-11T13:49:21.620Z,23.95
2018-04-11T13:51:48.289Z,23.75
2018-04-11T13:54:14.956Z,24.00
2018-04-11T13:56:41.612Z,24.27
2018-04-11T13:59:08.296Z,25.10
2018-04-11T14:01:35.725Z,23.52
2018-04-11T14:04:02.405Z,22.90
2018-04-11T14:06:29.105Z,24.05
2018-04-11T14:08:55.791Z,22.70
2018-04-11T14:11:22.571Z,23.33
2018-04-11T14:13:49.213Z,23.20
2018-04-11T14:16:15.923Z,25.25
2018-04-11T14:18:42.580Z,23.42
2018-04-11T14:21:09.266Z,25.10
2018-04-11T14:23:35.981Z,26.05
2018-04-11T14:26:02.675Z,25.27
2018-04-11T14:28:29.385Z,25.65
2018-04-11T14:30:56.016Z,24.85
2018-04-11T14:33:22.708Z,27.55
2018-04-11T14:35:49.355Z,26.02
2018-04-11T14:38:16.307Z,24.00
2018-04-11T14:40:42.962Z,27.08
2018-04-11T14:43:09.679Z,26.10
2018-04-11T14:45:36.364Z,28.35
2018-04-11T14:48:03.043Z,27.05
2018-04-11T14:50:29.680Z,26.57
2018-04-11T14:52:56.373Z,26.70
2018-04-11T14:55:23.735Z,25.73
2018-04-11T14:57:50.444Z,27.48
2018-04-11T15:00:17.157Z,26.95
2018-04-11T15:02:43.842Z,26.60
2018-04-11T15:05:10.538Z,28.75
2018-04-11T15:07:37.218Z,30.30
2018-04-11T15:10:03.865Z,32.42
2018-04-11T15:12:30.533Z,43.08
2018-04-11T15:14:57.196Z,28.92
2018-04-11T15:17:23.851Z,31.77
2018-04-11T15:19:50.527Z,29.25
2018-04-11T15:22:17.174Z,31.52
2018-04-11T15:24:43.948Z,39.33
2018-04-11T15:27:10.590Z,33.08
2018-04-11T15:29:37.304Z,33.45
2018-04-11T15:32:04.475Z,33.83
2018-04-11T15:34:31.143Z,34.28
2018-04-11T15:36:57.807Z,38.63
2018-04-11T15:39:24.521Z,38.28
2018-04-11T15:41:51.192Z,35.95
2018-04-11T15:44:17.859Z,37.55
2018-04-11T15:46:44.521Z,39.05
2018-04-11T15:49:11.176Z,40.85
2018-04-11T15:51:37.878Z,37.70
2018-04-11T15:54:04.532Z,39.10
2018-04-11T15:56:31.263Z,40.90
2018-04-11T15:58:57.930Z,40.70
2018-04-11T16:01:24.602Z,39.85
2018-04-11T16:03:51.258Z,39.05
2018-04-11T16:06:17.920Z,40.33
2018-04-11T16:08:44.624Z,38.67
2018-04-11T16:11:11.307Z,40.80
2018-04-11T16:13:38.038Z,39.17
2018-04-11T16:16:04.719Z,36.45
2018-04-11T16:18:31.399Z,50.47
2018-04-11T16:20:58.305Z,35.00
2018-04-11T16:23:24.977Z,35.65
2018-04-11T16:25:51.628Z,37.35
2018-04-11T16:28:18.298Z,35.63
2018-04-11T16:30:44.977Z,37.55
2018-04-11T16:33:11.692Z,36.15
2018-04-11T16:35:38.331Z,38.10
2018-04-11T16:38:05.033Z,38.33
2018-04-11T16:40:31.698Z,37.20
2018-04-11T16:42:58.610Z,38.95
2018-04-11T16:45:25.252Z,41.33
2018-04-11T16:47:51.922Z,37.60
2018-04-11T16:50:18.653Z,44.78
2018-04-11T16:52:45.867Z,43.95
2018-04-11T16:55:13.304Z,43.50
2018-04-11T16:57:40.010Z,45.45
2018-04-11T17:00:07.828Z,46.53
2018-04-11T17:02:38.927Z,56.90
2018-04-11T17:05:05.912Z,44.47
2018-04-11T17:07:32.757Z,47.33
2018-04-11T17:09:59.514Z,49.03
2018-04-11T17:12:26.184Z,47.05
2018-04-11T17:14:53.258Z,47.62
2018-04-11T17:17:19.944Z,63.55
2018-04-11T17:19:50.633Z,52.95
2018-04-11T17:22:23.479Z,49.80
2018-04-11T17:24:56.114Z,48.70
2018-04-11T17:27:28.690Z,48.28
2018-04-11T17:30:02.215Z,47.15
2018-04-11T17:32:29.348Z,48.70
2018-04-11T17:34:57.087Z,45.40
2018-04-11T17:37:23.791Z,46.40
2018-04-11T17:39:50.564Z,45.15
2018-04-11T17:42:17.276Z,46.25
2018-04-11T17:44:44.398Z,48.25
2018-04-11T17:47:11.182Z,49.63
2018-04-11T17:49:37.916Z,43.53
2018-04-11T17:52:04.614Z,52.03
2018-04-11T17:54:35.062Z,47.28
2018-04-11T17:57:01.841Z,49.22
2018-04-11T17:59:28.719Z,51.08
2018-04-11T18:01:55.748Z,50.90
2018-04-11T18:04:23.948Z,52.42
2018-04-11T18:06:50.972Z,47.05
2018-04-11T18:09:17.746Z,48.87
2018-04-11T18:11:44.427Z,47.85
2018-04-11T18:14:14.849Z,45.95
2018-04-11T18:16:41.575Z,49.85
2018-04-11T18:19:08.982Z,50.00
2018-04-11T18:21:36.429Z,53.08
2018-04-11T18:24:03.161Z,51.00
2018-04-11T18:26:29.958Z,51.03
2018-04-11T18:28:57.558Z,53.45
2018-04-11T18:31:24.199Z,51.28
2018-04-11T18:33:50.936Z,53.90
2018-04-11T18:36:19.052Z,52.20
2018-04-11T18:38:45.774Z,53.42
2018-04-11T18:41:12.511Z,50.38
2018-04-11T18:43:39.191Z,56.33
2018-04-11T18:46:05.881Z,58.47
2018-04-11T18:48:32.537Z,60.40
2018-04-11T18:50:59.196Z,51.50
2018-04-11T18:53:25.943Z,57.17
2018-04-11T18:55:52.665Z,57.72
2018-04-11T18:58:20.195Z,54.67
2018-04-11T19:00:47.617Z,55.60
2018-04-11T19:03:14.323Z,57.80
2018-04-11T19:05:41.097Z,53.75
2018-04-11T19:08:07.857Z,58.15
2018-04-11T19:10:36.549Z,58.17
2018-04-11T19:13:04.362Z,59.05
2018-04-11T19:15:32.227Z,56.90
2018-04-11T19:17:59.248Z,54.78
2018-04-11T19:20:26.132Z,55.90
2018-04-11T19:22:53.066Z,55.10
2018-04-11T19:25:25.093Z,58.17
2018-04-11T19:27:52.140Z,54.85
2018-04-11T19:30:19.325Z,54.75
2018-04-11T19:32:46.498Z,60.67
2018-04-11T19:35:13.859Z,57.55
2018-04-11T19:37:41.424Z,59.65
2018-04-11T19:40:09.586Z,59.75
2018-04-11T19:42:36.741Z,63.78
2018-04-11T19:45:04.099Z,57.53
2018-04-11T19:47:32.128Z,56.03
2018-04-11T19:49:59.138Z,60.53
2018-04-11T19:52:26.114Z,58.60
2018-04-11T19:54:53.024Z,54.15
2018-04-11T19:57:20.708Z,53.08
2018-04-11T19:59:47.895Z,51.45
2018-04-11T20:02:14.772Z,54.58
2018-04-11T20:04:41.614Z,69.93
2018-04-11T20:07:08.548Z,54.38
2018-04-11T20:09:35.441Z,51.47
2018-04-11T20:12:02.340Z,60.53
2018-04-11T20:14:29.136Z,55.92
2018-04-11T20:16:55.898Z,54.45
2018-04-11T20:19:22.612Z,53.55
2018-04-11T20:21:49.471Z,53.22
2018-04-11T20:24:16.204Z,54.10
2018-04-11T20:26:43.643Z,52.22
2018-04-11T20:29:11.632Z,53.58
2018-04-11T20:31:39.900Z,54.67
2018-04-11T20:34:07.017Z,55.35
2018-04-11T20:36:33.829Z,50.88
2018-04-11T20:39:01.397Z,51.97
2018-04-11T20:41:28.392Z,52.65
2018-04-11T20:43:55.345Z,50.95
2018-04-11T20:46:22.481Z,52.03
2018-04-11T20:48:49.561Z,48.55
2018-04-11T20:51:16.419Z,51.85
2018-04-11T20:53:43.767Z,50.45
2018-04-11T20:56:11.473Z,52.08
2018-04-11T20:58:39.170Z,50.28
2018-04-11T21:01:07.539Z,48.92
2018-04-11T21:03:35.254Z,53.78
2018-04-11T21:06:03.046Z,52.17
2018-04-11T21:08:30.190Z,54.78
2018-04-11T21:10:57.168Z,55.33
2018-04-11T21:13:24.370Z,50.20
2018-04-11T21:15:51.594Z,49.45
2018-04-11T21:18:18.445Z,51.50
2018-04-11T21:20:46.209Z,52.50
2018-04-11T21:23:13.991Z,51.72
2018-04-11T21:25:40.951Z,49.97
2018-04-11T21:28:08.388Z,50.83
2018-04-11T21:30:35.232Z,52.47
2018-04-11T21:33:02.500Z,54.20
2018-04-11T21:35:29.258Z,58.85
2018-04-11T21:38:01.177Z,52.38
2018-04-11T21:40:28.218Z,50.60
2018-04-11T21:42:55.053Z,54.30
2018-04-11T21:45:22.251Z,50.92
2018-04-11T21:47:48.964Z,49.95
2018-04-11T21:50:17.370Z,53.70
2018-04-11T21:52:44.276Z,54.80
2018-04-11T21:55:11.015Z,55.53
2018-04-11T21:57:42.485Z,55.70
2018-04-11T22:00:10.433Z,57.17
2018-04-11T22:02:38.555Z,59.35
2018-04-11T22:05:05.257Z,54.75
2018-04-11T22:07:32.829Z,59.60
2018-04-11T22:09:59.775Z,56.90
2018-04-11T22:12:26.621Z,54.20
2018-04-11T22:14:53.408Z,57.40
2018-04-11T22:17:20.095Z,57.35
2018-04-11T22:19:47.774Z,59.15
2018-04-11T22:22:14.533Z,59.63
2018-04-11T22:24:41.971Z,59.10
2018-04-11T22:27:08.778Z,61.05
2018-04-11T22:29:36.231Z,59.83
2018-04-11T22:32:04.077Z,58.20
2018-04-11T22:34:31.927Z,62.30
2018-04-11T22:36:58.650Z,59.25
2018-04-11T22:39:25.372Z,57.90
2018-04-11T22:41:52.029Z,59.13
2018-04-11T22:44:23.579Z,57.13
2018-04-11T22:46:50.258Z,61.10
2018-04-11T22:49:18.140Z,59.03
2018-04-11T22:51:44.762Z,53.53
2018-04-11T22:54:11.427Z,54.17
2018-04-11T22:56:38.257Z,54.92
2018-04-11T22:59:04.916Z,52.30
2018-04-11T23:01:31.627Z,51.75
2018-04-11T23:04:02.052Z,52.90
2018-04-11T23:06:28.750Z,57.58
2018-04-11T23:08:55.450Z,54.65
2018-04-11T23:11:22.169Z,55.42
2018-04-11T23:13:48.819Z,54.55
2018-04-11T23:16:15.459Z,53.97
2018-04-11T23:18:42.222Z,50.63
2018-04-11T23:21:08.878Z,52.88
2018-04-11T23:23:35.539Z,55.55
2018-04-11T23:26:02.192Z,47.17
2018-04-11T23:28:28.867Z,54.60
2018-04-11T23:30:55.538Z,47.75
2018-04-11T23:33:25.132Z,46.10
2018-04-11T23:35:51.825Z,45.92
2018-04-11T23:38:18.459Z,49.85
2018-04-11T23:40:45.767Z,46.60
2018-04-11T23:43:17.663Z,42.25
2018-04-11T23:45:44.962Z,45.22
2018-04-11T23:48:11.854Z,45.08
2018-04-11T23:50:38.535Z,41.37
2018-04-11T23:53:05.212Z,44.40
2018-04-11T23:55:31.891Z,43.60
2018-04-11T23:57:59.395Z,43.47
